createdAt,value
2019-02-15T00:02:21.336Z,75.12
2019-02-15T00:04:49.523Z,75.27
2019-02-15T00:07:17.738Z,75.38
2019-02-15T00:09:45.927Z,75.56
2019-02-15T00:12:14.158Z,75.85
2019-02-15T00:14:47.869Z,76.03
2019-02-15T00:17:17.711Z,76.31
2019-02-15T00:19:50.529Z,76.52
2019-02-15T00:22:19.033Z,76.67
2019-02-15T00:24:47.479Z,76.77
2019-02-15T00:27:15.989Z,76.84
2019-02-15T00:29:44.190Z,76.84
2019-02-15T00:32:12.385Z,76.93
2019-02-15T00:34:40.607Z,77.09
2019-02-15T00:37:08.795Z,77.25
2019-02-15T00:39:37.000Z,77.32
2019-02-15T00:42:05.538Z,77.35
2019-02-15T00:44:34.034Z,77.44
2019-02-15T00:47:03.868Z,77.53
2019-02-15T00:49:33.724Z,77.68
2019-02-15T00:52:06.260Z,77.78
2019-02-15T00:54:48.392Z,77.95
2019-02-15T00:57:33.319Z,78.17
2019-02-15T01:00:03.415Z,78.34
2019-02-15T01:02:38.955Z,78.41
2019-02-15T01:05:14.468Z,78.48
2019-02-15T01:07:44.312Z,78.53
2019-02-15T01:10:16.964Z,78.55
2019-02-15T01:12:52.387Z,78.60
2019-02-15T01:15:20.579Z,78.64
2019-02-15T01:17:48.784Z,78.74
2019-02-15T01:20:16.988Z,78.81
2019-02-15T01:22:45.202Z,78.82
2019-02-15T01:25:13.473Z,78.88
2019-02-15T01:27:43.321Z,78.94
2019-02-15T01:30:28.148Z,79.06
2019-02-15T01:32:57.993Z,79.12
2019-02-15T01:35:27.848Z,79.13
2019-02-15T01:38:12.998Z,79.15
2019-02-15T01:40:48.838Z,79.15
2019-02-15T01:43:21.532Z,79.09
2019-02-15T01:45:54.314Z,79.08
2019-02-15T01:48:22.515Z,79.12
2019-02-15T01:50:50.735Z,79.14
2019-02-15T01:53:18.927Z,79.10
2019-02-15T01:55:47.417Z,79.09
2019-02-15T01:58:15.907Z,79.08
2019-02-15T02:00:44.109Z,79.09
2019-02-15T02:03:12.306Z,79.12
2019-02-15T02:05:40.581Z,79.18
2019-02-15T02:08:10.436Z,79.25
2019-02-15T02:10:38.647Z,79.34
2019-02-15T02:13:07.231Z,79.26
2019-02-15T02:15:35.433Z,79.20
2019-02-15T02:18:03.624Z,79.10
2019-02-15T02:20:31.836Z,78.95
2019-02-15T02:23:01.743Z,78.83
2019-02-15T02:25:30.110Z,78.85
2019-02-15T02:27:58.305Z,78.93
2019-02-15T02:30:26.515Z,79.01
2019-02-15T02:32:54.704Z,79.06
2019-02-15T02:35:22.909Z,79.12
2019-02-15T02:37:51.106Z,79.14
2019-02-15T02:40:19.670Z,79.11
2019-02-15T02:42:47.867Z,79.01
2019-02-15T02:45:16.071Z,78.90
2019-02-15T02:47:44.294Z,78.82
2019-02-15T02:50:12.469Z,78.80
2019-02-15T02:52:40.664Z,78.85
2019-02-15T02:55:08.884Z,78.96
2019-02-15T02:57:37.085Z,79.08
2019-02-15T03:00:05.361Z,79.14
2019-02-15T03:02:33.559Z,79.16
2019-02-15T03:05:01.763Z,79.25
2019-02-15T03:07:30.301Z,79.35
2019-02-15T03:09:58.510Z,79.44
2019-02-15T03:12:26.706Z,79.48
2019-02-15T03:14:54.917Z,79.59
2019-02-15T03:17:23.112Z,79.65
2019-02-15T03:19:51.582Z,79.71
2019-02-15T03:22:20.063Z,79.76
2019-02-15T03:24:48.284Z,79.83
2019-02-15T03:27:16.503Z,79.88
2019-02-15T03:29:44.687Z,80.00
2019-02-15T03:32:12.891Z,80.09
2019-02-15T03:34:41.105Z,80.10
2019-02-15T03:37:20.074Z,80.11
2019-02-15T03:39:50.188Z,80.12
2019-02-15T03:42:18.384Z,80.17
2019-02-15T03:44:46.954Z,80.31
2019-02-15T03:47:16.780Z,80.41
2019-02-15T03:49:44.993Z,80.48
2019-02-15T03:52:13.191Z,80.59
2019-02-15T03:54:41.410Z,80.66
2019-02-15T03:57:09.609Z,80.66
2019-02-15T03:59:37.833Z,80.68
2019-02-15T04:02:06.021Z,80.71
2019-02-15T04:04:34.219Z,80.74
2019-02-15T04:07:02.419Z,80.76
2019-02-15T04:09:30.625Z,80.79
2019-02-15T04:11:58.837Z,80.82
2019-02-15T04:14:32.925Z,80.79
2019-02-15T04:16:57.306Z,80.76
2019-02-15T04:19:25.553Z,80.76
2019-02-15T04:21:53.708Z,80.81
2019-02-15T04:24:22.237Z,80.83
2019-02-15T04:26:50.439Z,80.89
2019-02-15T04:29:18.634Z,81.02
2019-02-15T04:31:46.848Z,81.01
2019-02-15T04:34:15.032Z,81.06
2019-02-15T04:36:43.253Z,81.09
2019-02-15T04:39:11.439Z,81.14
2019-02-15T04:41:39.985Z,81.16
2019-02-15T04:44:08.165Z,81.15
2019-02-15T04:46:36.371Z,81.12
2019-02-15T04:49:04.563Z,81.09
2019-02-15T04:51:33.070Z,81.06
2019-02-15T04:54:01.555Z,81.08
2019-02-15T04:56:29.762Z,81.10
2019-02-15T04:58:57.955Z,81.08
2019-02-15T05:01:26.940Z,81.01
2019-02-15T05:03:55.133Z,80.99
2019-02-15T05:06:23.709Z,80.97
2019-02-15T05:08:51.902Z,80.97
2019-02-15T05:11:20.559Z,80.96
2019-02-15T05:13:48.761Z,80.96
2019-02-15T05:16:16.946Z,80.96
2019-02-15T05:18:45.163Z,81.04
2019-02-15T05:21:13.364Z,81.05
2019-02-15T05:23:41.634Z,81.06
2019-02-15T05:26:10.112Z,81.04
2019-02-15T05:28:38.324Z,81.07
2019-02-15T05:31:06.870Z,81.05
2019-02-15T05:33:35.734Z,81.04
2019-02-15T05:36:03.928Z,81.04
2019-02-15T05:38:32.188Z,81.06
2019-02-15T05:41:00.389Z,81.05
2019-02-15T05:43:28.606Z,81.06
2019-02-15T05:45:56.809Z,81.09
2019-02-15T05:48:25.009Z,81.07
2019-02-15T05:50:53.211Z,81.08
2019-02-15T05:53:21.768Z,81.09
2019-02-15T05:55:49.971Z,81.13
2019-02-15T05:58:18.201Z,81.13
2019-02-15T06:00:46.391Z,81.14
2019-02-15T06:03:14.596Z,81.17
2019-02-15T06:05:43.051Z,81.16
2019-02-15T06:08:11.271Z,81.18
2019-02-15T06:10:39.470Z,81.17
2019-02-15T06:13:07.667Z,81.21
2019-02-15T06:15:35.867Z,81.21
2019-02-15T06:18:04.093Z,81.25
2019-02-15T06:20:32.269Z,81.28
2019-02-15T06:23:00.463Z,81.26
2019-02-15T06:25:28.682Z,81.26
2019-02-15T06:27:56.870Z,81.23
2019-02-15T06:30:25.088Z,81.25
2019-02-15T06:32:53.690Z,81.30
2019-02-15T06:35:22.170Z,81.34
2019-02-15T06:37:50.366Z,81.34
2019-02-15T06:40:18.928Z,81.35
2019-02-15T06:42:47.124Z,81.39
2019-02-15T06:45:24.063Z,81.44
2019-02-15T06:47:45.696Z,81.46
2019-02-15T06:50:14.184Z,81.46
2019-02-15T06:52:42.400Z,81.43
2019-02-15T06:55:10.944Z,81.43
2019-02-15T06:57:39.164Z,81.44
2019-02-15T07:00:14.734Z,81.41
2019-02-15T07:02:44.580Z,81.44
2019-02-15T07:05:14.528Z,81.44
2019-02-15T07:07:42.733Z,81.44
2019-02-15T07:10:10.933Z,81.42
2019-02-15T07:12:39.164Z,81.37
2019-02-15T07:15:07.381Z,81.35
2019-02-15T07:17:35.886Z,81.33
2019-02-15T07:20:06.186Z,81.29
2019-02-15T07:22:34.402Z,81.26
2019-02-15T07:25:02.604Z,81.22
2019-02-15T07:27:30.802Z,81.19
2019-02-15T07:29:59.067Z,81.18
2019-02-15T07:32:27.243Z,81.15
2019-02-15T07:34:55.436Z,81.13
2019-02-15T07:37:23.654Z,81.12
2019-02-15T07:39:51.846Z,81.09
2019-02-15T07:42:21.207Z,81.06
2019-02-15T07:44:49.994Z,81.00
2019-02-15T07:47:18.195Z,80.94
2019-02-15T07:49:46.407Z,80.81
2019-02-15T07:52:14.598Z,80.74
2019-02-15T07:54:42.811Z,80.70
2019-02-15T07:57:11.018Z,80.63
2019-02-15T07:59:39.228Z,80.48
2019-02-15T08:02:07.668Z,80.33
2019-02-15T08:04:35.878Z,80.20
2019-02-15T08:07:04.375Z,80.04
2019-02-15T08:09:32.571Z,79.87
2019-02-15T08:12:00.769Z,79.70
2019-02-15T08:14:28.983Z,79.50
2019-02-15T08:16:57.173Z,79.22
2019-02-15T08:19:25.386Z,78.95
2019-02-15T08:21:53.591Z,78.68
2019-02-15T08:24:21.798Z,78.35
2019-02-15T08:26:50.280Z,78.07
2019-02-15T08:29:18.505Z,77.67
2019-02-15T08:31:47.033Z,77.21
2019-02-15T08:34:15.247Z,76.76
2019-02-15T08:36:43.459Z,76.27
2019-02-15T08:39:11.673Z,75.88
2019-02-15T08:41:39.865Z,75.40
2019-02-15T08:44:08.417Z,75.00
2019-02-15T08:46:36.643Z,74.55
2019-02-15T08:49:04.839Z,73.95
2019-02-15T08:51:33.085Z,73.39
2019-02-15T08:54:01.261Z,72.88
2019-02-15T08:56:29.493Z,72.33
2019-02-15T08:58:57.684Z,71.67
2019-02-15T09:01:25.907Z,71.21
2019-02-15T09:03:54.128Z,70.76
2019-02-15T09:06:22.302Z,70.02
2019-02-15T09:08:50.515Z,69.47
2019-02-15T09:11:18.709Z,68.67
2019-02-15T09:13:47.229Z,67.61
2019-02-15T09:16:15.705Z,66.80
2019-02-15T09:18:43.893Z,65.61
2019-02-15T09:21:12.521Z,65.03
2019-02-15T09:23:41.046Z,60.84
2019-02-15T09:26:17.824Z,62.50
2019-02-15T09:28:46.805Z,61.80
2019-02-15T09:31:15.004Z,60.69
2019-02-15T09:33:43.217Z,58.39
2019-02-15T09:36:11.412Z,59.26
2019-02-15T09:38:39.867Z,58.48
2019-02-15T09:41:08.054Z,57.36
2019-02-15T09:43:36.570Z,56.14
2019-02-15T09:46:04.759Z,55.78
2019-02-15T09:48:32.976Z,53.78
2019-02-15T09:51:01.182Z,53.84
2019-02-15T09:53:29.688Z,53.68
2019-02-15T09:55:57.882Z,52.85
2019-02-15T09:58:26.100Z,53.19
2019-02-15T10:00:54.307Z,52.59
2019-02-15T10:03:22.799Z,51.96
2019-02-15T10:05:50.993Z,51.32
2019-02-15T10:08:19.189Z,51.22
2019-02-15T10:10:47.377Z,51.01
2019-02-15T10:13:15.600Z,50.71
2019-02-15T10:15:44.070Z,50.28
2019-02-15T10:18:12.258Z,50.05
2019-02-15T10:20:40.755Z,49.48
2019-02-15T10:23:08.939Z,49.28
2019-02-15T10:25:37.150Z,48.76
2019-02-15T10:28:05.383Z,48.62
2019-02-15T10:30:33.584Z,48.34
2019-02-15T10:33:01.790Z,47.76
2019-02-15T10:35:29.995Z,47.06
2019-02-15T10:37:58.187Z,46.41
2019-02-15T10:40:26.398Z,44.90
2019-02-15T10:42:54.578Z,44.56
2019-02-15T10:45:23.077Z,45.18
2019-02-15T10:47:51.271Z,44.70
2019-02-15T10:50:19.483Z,44.92
2019-02-15T10:52:47.752Z,44.44
2019-02-15T10:55:16.291Z,44.38
2019-02-15T10:57:44.486Z,43.81
2019-02-15T11:00:18.618Z,43.80
2019-02-15T11:02:46.843Z,43.63
2019-02-15T11:05:16.002Z,42.96
2019-02-15T11:07:44.194Z,43.12
2019-02-15T11:10:12.653Z,42.81
2019-02-15T11:12:40.854Z,42.13
2019-02-15T11:15:16.363Z,41.97
2019-02-15T11:17:44.570Z,41.70
2019-02-15T11:20:14.694Z,41.30
2019-02-15T11:22:42.891Z,41.10
2019-02-15T11:25:12.115Z,40.41
2019-02-15T11:27:40.363Z,40.20
2019-02-15T11:30:13.621Z,39.67
2019-02-15T11:32:41.827Z,39.78
2019-02-15T11:35:11.768Z,38.27
2019-02-15T11:37:39.979Z,37.92
2019-02-15T11:40:11.270Z,37.41
2019-02-15T11:42:39.750Z,37.79
2019-02-15T11:45:10.862Z,37.08
2019-02-15T11:47:39.479Z,36.86
2019-02-15T11:50:10.340Z,36.96
2019-02-15T11:52:38.608Z,37.16
2019-02-15T11:55:08.660Z,36.95
2019-02-15T11:57:36.871Z,36.75
2019-02-15T12:00:14.290Z,36.89
2019-02-15T12:02:38.850Z,36.18
2019-02-15T12:05:08.709Z,36.35
2019-02-15T12:07:36.909Z,36.21
2019-02-15T12:10:08.153Z,35.71
2019-02-15T12:12:36.690Z,35.09
2019-02-15T12:15:07.122Z,34.63
2019-02-15T12:17:35.332Z,35.03
2019-02-15T12:20:04.292Z,34.78
2019-02-15T12:22:32.486Z,34.92
2019-02-15T12:25:01.040Z,34.88
2019-02-15T12:27:32.547Z,35.04
2019-02-15T12:30:00.940Z,34.71
2019-02-15T12:32:29.148Z,34.48
2019-02-15T12:34:57.442Z,34.10
2019-02-15T12:37:25.794Z,34.44
2019-02-15T12:39:54.264Z,34.09
2019-02-15T12:42:22.454Z,34.45
2019-02-15T12:44:50.652Z,34.59
2019-02-15T12:47:19.116Z,34.79
2019-02-15T12:49:47.335Z,33.82
2019-02-15T12:52:15.766Z,34.70
2019-02-15T12:54:49.864Z,34.69
2019-02-15T12:57:18.070Z,34.59
2019-02-15T13:02:33.163Z,34.74
2019-02-15T13:05:04.229Z,34.42
2019-02-15T13:07:34.392Z,34.40
2019-02-15T13:10:04.260Z,34.27
2019-02-15T13:12:33.355Z,34.19
2019-02-15T13:15:01.852Z,33.79
2019-02-15T13:17:30.213Z,33.74
2019-02-15T13:19:59.472Z,33.37
2019-02-15T13:22:27.759Z,33.27
2019-02-15T13:24:56.166Z,33.02
2019-02-15T13:27:24.431Z,32.96
2019-02-15T13:29:52.647Z,32.62
2019-02-15T13:32:20.845Z,32.12
2019-02-15T13:34:49.039Z,31.96
2019-02-15T13:37:17.258Z,32.13
2019-02-15T13:39:45.442Z,32.12
2019-02-15T13:42:13.662Z,32.68
2019-02-15T13:44:42.136Z,32.78
2019-02-15T13:47:10.329Z,32.96
2019-02-15T13:49:38.590Z,32.92
2019-02-15T13:52:07.055Z,33.15
2019-02-15T13:54:35.528Z,33.09
2019-02-15T13:57:03.706Z,33.05
2019-02-15T13:59:31.898Z,32.70
2019-02-15T14:02:00.105Z,32.46
2019-02-15T14:04:28.319Z,31.46
2019-02-15T14:06:57.093Z,31.27
2019-02-15T14:09:25.636Z,30.77
2019-02-15T14:11:54.093Z,30.68
2019-02-15T14:14:22.286Z,30.54
2019-02-15T14:16:50.491Z,30.37
2019-02-15T14:19:18.734Z,30.51
2019-02-15T14:21:46.942Z,30.39
2019-02-15T14:24:15.136Z,29.96
2019-02-15T14:26:43.354Z,29.58
2019-02-15T14:29:11.549Z,29.64
2019-02-15T14:31:40.107Z,29.60
2019-02-15T14:34:12.820Z,29.10
2019-02-15T14:36:38.297Z,29.01
2019-02-15T14:39:08.585Z,28.79
2019-02-15T14:41:36.806Z,28.71
2019-02-15T14:44:05.005Z,28.36
2019-02-15T14:46:33.516Z,26.93
2019-02-15T14:49:01.671Z,27.24
2019-02-15T14:51:30.189Z,27.35
2019-02-15T14:53:58.385Z,27.13
2019-02-15T14:56:26.863Z,26.99
2019-02-15T14:58:55.052Z,26.95
2019-02-15T15:01:23.242Z,27.20
2019-02-15T15:03:51.685Z,27.40
2019-02-15T15:06:19.929Z,27.29
2019-02-15T15:08:48.115Z,27.48
2019-02-15T15:11:16.310Z,27.24
2019-02-15T15:13:44.532Z,27.00
2019-02-15T15:16:12.971Z,26.69
2019-02-15T15:18:41.177Z,26.05
2019-02-15T15:21:09.373Z,25.78
2019-02-15T15:23:37.570Z,26.07
2019-02-15T15:26:11.714Z,26.30
2019-02-15T15:28:35.702Z,26.38
2019-02-15T15:31:05.565Z,26.44
2019-02-15T15:33:33.745Z,26.41
2019-02-15T15:36:01.952Z,26.01
2019-02-15T15:38:30.153Z,25.90
2019-02-15T15:40:58.592Z,25.67
2019-02-15T15:43:27.082Z,25.47
2019-02-15T15:45:55.919Z,25.26
2019-02-15T15:48:24.404Z,25.31
2019-02-15T15:50:52.599Z,25.31
2019-02-15T15:53:21.051Z,25.58
2019-02-15T15:55:49.512Z,25.93
2019-02-15T15:58:18.032Z,26.15
2019-02-15T16:00:46.493Z,26.50
2019-02-15T16:03:14.703Z,27.03
2019-02-15T16:05:42.891Z,27.56
2019-02-15T16:08:11.126Z,28.03
2019-02-15T16:10:39.311Z,28.50
2019-02-15T16:13:07.965Z,28.98
2019-02-15T16:15:36.161Z,29.49
2019-02-15T16:18:04.366Z,29.95
2019-02-15T16:20:32.574Z,30.37
2019-02-15T16:23:00.826Z,30.96
2019-02-15T16:25:29.021Z,31.77
2019-02-15T16:27:57.238Z,32.44
2019-02-15T16:30:25.686Z,32.72
2019-02-15T16:32:53.881Z,33.14
2019-02-15T16:35:22.078Z,33.84
2019-02-15T16:37:50.270Z,34.51
2019-02-15T16:40:18.482Z,35.26
2019-02-15T16:42:46.674Z,35.89
2019-02-15T16:45:15.523Z,36.62
2019-02-15T16:47:43.731Z,37.20
2019-02-15T16:50:12.004Z,37.68
2019-02-15T16:52:40.214Z,38.30
2019-02-15T16:55:12.732Z,38.95
2019-02-15T16:57:39.204Z,39.47
2019-02-15T17:00:12.587Z,39.90
2019-02-15T17:02:40.731Z,40.41
2019-02-15T17:05:08.937Z,40.93
2019-02-15T17:07:37.131Z,41.40
2019-02-15T17:10:08.033Z,41.81
2019-02-15T17:12:36.238Z,42.04
2019-02-15T17:15:06.634Z,42.14
2019-02-15T17:17:35.315Z,41.87
2019-02-15T17:20:04.942Z,41.64
2019-02-15T17:22:33.167Z,41.56
2019-02-15T17:25:01.395Z,42.04
2019-02-15T17:27:29.583Z,42.49
2019-02-15T17:29:57.784Z,43.12
2019-02-15T17:32:25.988Z,43.75
2019-02-15T17:34:54.186Z,44.26
2019-02-15T17:37:22.436Z,44.71
2019-02-15T17:39:50.640Z,45.20
2019-02-15T17:42:19.105Z,45.59
2019-02-15T17:44:47.303Z,45.78
2019-02-15T17:47:15.515Z,45.89
2019-02-15T17:49:43.691Z,45.97
2019-02-15T17:52:12.212Z,46.20
2019-02-15T17:54:40.693Z,46.56
2019-02-15T17:57:09.174Z,46.65
2019-02-15T17:59:37.385Z,47.03
2019-02-15T18:02:07.236Z,47.32
2019-02-15T18:04:35.403Z,47.59
2019-02-15T18:07:03.605Z,48.15
2019-02-15T18:09:31.810Z,48.68
2019-02-15T18:12:00.023Z,49.05
2019-02-15T18:14:28.217Z,49.52
2019-02-15T18:16:56.422Z,49.83
2019-02-15T18:19:24.635Z,50.08
2019-02-15T18:21:52.824Z,50.31
2019-02-15T18:24:21.037Z,50.69
2019-02-15T18:26:49.235Z,50.91
2019-02-15T18:29:17.433Z,51.14
2019-02-15T18:31:45.621Z,51.46
2019-02-15T18:34:13.825Z,51.73
2019-02-15T18:36:42.020Z,51.97
2019-02-15T18:39:10.219Z,52.29
2019-02-15T18:41:38.792Z,52.52
2019-02-15T18:44:07.399Z,52.67
2019-02-15T18:46:35.932Z,52.66
2019-02-15T18:49:05.121Z,52.71
2019-02-15T18:51:33.715Z,52.70
2019-02-15T18:54:01.923Z,52.91
2019-02-15T18:56:30.113Z,52.92
2019-02-15T18:58:58.326Z,53.03
2019-02-15T19:01:26.850Z,53.16
2019-02-15T19:03:55.076Z,53.31
2019-02-15T19:06:23.260Z,53.52
2019-02-15T19:08:51.774Z,53.61
2019-02-15T19:11:19.975Z,53.72
2019-02-15T19:13:48.512Z,53.72
2019-02-15T19:16:16.727Z,53.77
2019-02-15T19:18:44.918Z,53.82
2019-02-15T19:21:13.116Z,53.87
2019-02-15T19:23:41.618Z,54.05
2019-02-15T19:26:09.815Z,54.15
2019-02-15T19:28:38.233Z,54.36
2019-02-15T19:31:06.486Z,54.51
2019-02-15T19:33:34.689Z,54.70
2019-02-15T19:36:02.883Z,54.91
2019-02-15T19:38:31.080Z,55.04
2019-02-15T19:40:59.548Z,55.14
2019-02-15T19:43:27.749Z,55.25
2019-02-15T19:45:55.947Z,55.31
2019-02-15T19:48:24.149Z,55.45
2019-02-15T19:50:52.365Z,55.63
2019-02-15T19:53:20.549Z,55.59
2019-02-15T19:55:49.011Z,55.69
2019-02-15T19:58:17.218Z,55.83
2019-02-15T20:00:45.422Z,55.90
2019-02-15T20:03:13.628Z,56.14
2019-02-15T20:05:41.872Z,56.40
2019-02-15T20:08:11.016Z,56.69
2019-02-15T20:10:39.592Z,56.94
2019-02-15T20:13:08.287Z,57.11
2019-02-15T20:15:36.477Z,57.20
2019-02-15T20:18:04.681Z,57.33
2019-02-15T20:20:35.469Z,57.54
2019-02-15T20:23:06.427Z,57.72
2019-02-15T20:25:37.150Z,57.86
2019-02-15T20:28:13.699Z,58.08
2019-02-15T20:30:37.691Z,58.25
2019-02-15T20:36:01.544Z,58.74
2019-02-15T20:38:31.621Z,58.94
2019-02-15T20:41:07.460Z,59.13
2019-02-15T20:43:35.727Z,59.25
2019-02-15T20:46:13.078Z,59.40
2019-02-15T20:49:09.751Z,59.56
2019-02-15T20:52:28.041Z,59.80
2019-02-15T20:54:55.871Z,59.92
2019-02-15T20:57:24.319Z,60.02
2019-02-15T20:59:52.853Z,60.27
2019-02-15T21:02:21.092Z,60.58
2019-02-15T21:04:49.290Z,60.74
2019-02-15T21:07:17.481Z,60.97
2019-02-15T21:09:47.489Z,61.17
2019-02-15T21:12:15.686Z,61.48
2019-02-15T21:14:43.895Z,61.69
2019-02-15T21:17:12.130Z,61.88
2019-02-15T21:19:40.370Z,62.13
2019-02-15T21:22:08.563Z,62.28
2019-02-15T21:24:38.653Z,62.35
2019-02-15T21:27:07.138Z,62.44
2019-02-15T21:29:35.617Z,62.59
2019-02-15T21:32:03.812Z,62.81
2019-02-15T21:34:32.030Z,62.92
2019-02-15T21:37:00.228Z,63.07
2019-02-15T21:39:28.429Z,63.23
2019-02-15T21:41:56.912Z,63.36
2019-02-15T21:44:25.395Z,63.51
2019-02-15T21:46:53.590Z,63.63
2019-02-15T21:49:21.792Z,63.74
2019-02-15T21:51:49.981Z,63.85
2019-02-15T21:54:18.508Z,63.99
2019-02-15T21:56:46.733Z,64.12
2019-02-15T21:59:14.906Z,64.27
2019-02-15T22:01:43.420Z,64.40
2019-02-15T22:04:11.611Z,64.56
2019-02-15T22:06:39.826Z,64.70
2019-02-15T22:09:08.382Z,64.85
2019-02-15T22:11:36.579Z,64.99
2019-02-15T22:14:05.108Z,65.10
2019-02-15T22:16:33.320Z,65.15
2019-02-15T22:19:01.511Z,65.04
2019-02-15T22:21:30.108Z,64.95
2019-02-15T22:23:58.320Z,64.88
2019-02-15T22:26:26.515Z,64.81
2019-02-15T22:28:54.714Z,64.77
2019-02-15T22:31:22.911Z,64.61
2019-02-15T22:33:51.729Z,64.61
2019-02-15T22:36:19.925Z,64.55
2019-02-15T22:38:48.123Z,64.43
2019-02-15T22:41:16.425Z,64.39
2019-02-15T22:43:44.604Z,64.39
2019-02-15T22:46:13.115Z,64.42
2019-02-15T22:48:41.313Z,64.56
2019-02-15T22:51:09.519Z,64.73
2019-02-15T22:53:38.048Z,64.85
2019-02-15T22:56:06.241Z,64.97
2019-02-15T22:58:34.450Z,65.03
2019-02-15T23:01:05.687Z,65.12
2019-02-15T23:03:33.894Z,65.16
2019-02-15T23:06:02.106Z,65.18
2019-02-15T23:08:30.380Z,65.21
2019-02-15T23:10:58.573Z,65.26
2019-02-15T23:13:26.780Z,65.46
2019-02-15T23:15:55.007Z,65.41
2019-02-15T23:18:23.233Z,65.42
2019-02-15T23:20:51.420Z,65.59
2019-02-15T23:23:19.625Z,65.51
2019-02-15T23:25:47.839Z,65.59
2019-02-15T23:28:16.381Z,65.63
2019-02-15T23:30:44.857Z,65.72
2019-02-15T23:33:13.340Z,65.75
2019-02-15T23:35:41.782Z,65.83
2019-02-15T23:38:10.240Z,65.94
2019-02-15T23:40:38.443Z,66.06
2019-02-15T23:43:06.640Z,66.15
2019-02-15T23:45:34.829Z,66.25
2019-02-15T23:48:03.030Z,66.38
2019-02-15T23:50:31.239Z,66.51
2019-02-15T23:52:59.426Z,66.58
2019-02-15T23:55:28.041Z,66.66
2019-02-15T23:57:56.512Z,66.78
